Time;durP1;ratioP1;P1;durP2;ratioP2;P2;SDS_P1;SDS_P2;PMS_P1;PMS_P2;Temp;Humidity;BMP_temperature;BMP_pressure;BME280_temperature;BME280_humidity;BME280_pressure;Samples;Min_cycle;Max_cycle;Signal;HPM_P1;HPM_P2
2023/12/23 00:00:23;;;;;;;2.93;1.20;;;8.10;93.20;;;8.44;70.32;96942.69;5036628;28;20412;-54
2023/12/23 00:02:51;;;;;;;4.70;1.27;;;8.10;94.50;;;8.39;71.13;96971.47;5036638;28;20041;-55
2023/12/23 00:05:18;;;;;;;4.20;2.20;;;8.00;96.80;;;8.33;72.06;96964.19;5036949;28;20105;-55
2023/12/23 00:07:46;;;;;;;4.13;1.73;;;7.90;99.40;;;8.33;71.80;96949.09;5036114;28;20053;-55
2023/12/23 00:10:14;;;;;;;3.70;1.40;;;7.90;98.30;;;8.35;71.69;96968.31;5036907;28;20053;-56
2023/12/23 00:12:42;;;;;;;4.40;2.20;;;7.90;98.20;;;8.35;71.78;96975.47;5035357;28;20037;-57
2023/12/23 00:15:10;;;;;;;1.20;0.87;;;7.90;98.30;;;8.28;71.43;96993.84;5036432;28;20041;-54
2023/12/23 00:17:37;;;;;;;5.30;2.50;;;8.00;95.70;;;8.30;71.88;97007.78;5034111;28;20044;-55
2023/12/23 00:20:06;;;;;;;6.93;1.53;;;8.00;96.90;;;8.15;72.31;97006.75;5032451;28;20037;-53
2023/12/23 00:22:35;;;;;;;5.50;1.50;;;7.90;97.60;;;8.18;72.28;97057.66;5033379;28;20053;-55
2023/12/23 00:25:03;;;;;;;7.23;1.93;;;7.90;97.70;;;8.15;72.41;97051.81;5033277;28;20052;-56
2023/12/23 00:27:31;;;;;;;1.83;1.30;;;7.90;98.00;;;8.08;73.62;97049.81;5033210;28;20053;-56
2023/12/23 00:29:59;;;;;;;3.90;1.50;;;7.80;99.90;;;8.02;73.41;97028.41;5033176;28;20390;-55
2023/12/23 00:32:28;;;;;;;3.10;1.50;;;7.70;99.90;;;8.01;73.82;97069.19;5033407;28;20046;-57
2023/12/23 00:34:55;;;;;;;3.33;1.87;;;7.60;99.90;;;7.91;74.01;97026.88;5015327;28;20045;-56
2023/12/23 00:37:23;;;;;;;5.53;1.90;;;7.50;99.90;;;7.85;75.11;97028.34;5032928;28;20424;-56
2023/12/23 00:39:50;;;;;;;4.10;1.77;;;7.50;99.90;;;7.88;74.99;97041.28;5031499;28;20429;-56
2023/12/23 00:42:19;;;;;;;6.10;3.53;;;7.50;99.90;;;7.76;76.11;97047.84;5031873;28;20041;-54
2023/12/23 00:44:47;;;;;;;9.73;3.00;;;7.40;99.90;;;7.81;75.72;97034.97;5031847;28;20048;-56
2023/12/23 00:47:14;;;;;;;1.60;1.20;;;7.30;99.90;;;7.87;75.69;97038.78;5031629;28;20049;-57
2023/12/23 00:49:44;;;;;;;3.87;2.07;;;7.30;99.90;;;7.86;75.43;97048.56;5031397;28;20436;-58
2023/12/23 00:52:12;;;;;;;3.40;1.73;;;7.40;99.90;;;7.95;75.35;97045.94;5024924;28;20044;-56
2023/12/23 00:54:40;;;;;;;5.10;1.73;;;7.40;99.90;;;7.88;75.33;97040.44;5031877;28;20076;-56
2023/12/23 00:57:07;;;;;;;4.43;1.50;;;7.50;99.90;;;7.78;75.27;97047.69;5030852;28;20057;-57
2023/12/23 00:59:35;;;;;;;4.67;1.80;;;7.40;99.90;;;7.86;74.78;97075.06;5031059;28;20045;-57
2023/12/23 01:02:03;;;;;;;3.30;0.93;;;7.50;99.90;;;7.81;75.23;97087.13;5014967;28;20053;-56
2023/12/23 01:04:30;;;;;;;5.53;2.07;;;7.50;99.90;;;7.77;75.23;97083.13;5033159;28;20044;-56
2023/12/23 01:06:58;;;;;;;3.63;1.53;;;7.50;99.90;;;7.89;74.95;97087.19;5032597;28;20065;-57
2023/12/23 01:09:25;;;;;;;5.33;1.83;;;7.60;99.90;;;7.90;74.39;97051.72;5014700;28;20402;-54
2023/12/23 01:11:53;;;;;;;3.17;1.50;;;7.60;99.90;;;7.94;74.29;97073.44;5031007;28;20497;-55
2023/12/23 01:14:21;;;;;;;5.13;1.73;;;7.60;99.90;;;7.97;74.12;97092.50;5031663;28;20049;-56
2023/12/23 01:16:48;;;;;;;4.57;1.67;;;7.70;99.90;;;8.09;73.71;97074.50;5031315;28;20045;-57
2023/12/23 01:19:16;;;;;;;2.77;1.37;;;7.70;99.90;;;8.03;73.56;97107.78;5030547;28;20044;-56
2023/12/23 01:21:44;;;;;;;3.93;2.03;;;7.70;99.90;;;8.08;73.79;97088.72;5032383;28;20041;-57
2023/12/23 01:24:11;;;;;;;2.53;1.10;;;7.70;99.90;;;8.19;73.21;97104.38;5032664;28;20417;-57
2023/12/23 01:26:39;;;;;;;3.70;1.60;;;7.70;99.90;;;8.20;73.14;97113.16;5032387;28;20042;-57
2023/12/23 01:29:06;;;;;;;4.10;1.50;;;7.70;99.90;;;8.28;73.09;97150.31;5030107;28;20056;-55
2023/12/23 01:31:34;;;;;;;3.63;1.87;;;7.70;99.90;;;8.30;72.81;97113.88;5030813;28;20044;-56
2023/12/23 01:34:02;;;;;;;4.17;1.50;;;7.70;99.90;;;8.12;72.96;97124.53;5022670;28;20049;-55
2023/12/23 01:36:29;;;;;;;4.07;2.27;;;7.70;99.90;;;8.12;73.81;97123.72;5031904;28;20048;-56
2023/12/23 01:38:58;;;;;;;6.03;1.90;;;7.60;99.90;;;8.16;73.57;97131.22;5030336;28;20046;-55
2023/12/23 01:41:26;;;;;;;4.00;1.93;;;7.60;99.90;;;8.11;73.26;97148.59;5030149;28;20049;-56
2023/12/23 01:43:54;;;;;;;5.53;1.90;;;7.70;99.90;;;8.13;73.29;97141.31;5030369;28;20053;-56
2023/12/23 01:46:23;;;;;;;3.23;2.00;;;7.70;99.90;;;8.17;72.80;97132.88;5030672;28;20473;-55
2023/12/23 01:48:51;;;;;;;5.63;2.00;;;7.80;99.90;;;8.22;72.63;97148.28;5030550;28;20049;-56
2023/12/23 01:51:19;;;;;;;5.43;2.10;;;7.70;99.20;;;8.26;72.43;97186.78;5023766;28;20049;-54
2023/12/23 01:53:46;;;;;;;3.90;1.57;;;7.70;99.10;;;8.33;72.14;97155.16;5028571;28;20042;-57
2023/12/23 01:56:15;;;;;;;3.80;1.63;;;7.70;98.60;;;8.30;72.17;97180.19;5030778;28;20071;-56
2023/12/23 01:58:43;;;;;;;4.90;1.77;;;7.80;98.30;;;8.32;71.90;97210.03;5030117;28;20052;-56
2023/12/23 02:01:11;;;;;;;6.80;2.27;;;7.80;97.90;;;8.21;72.20;97159.91;5030055;28;20046;-55
2023/12/23 02:03:40;;;;;;;4.70;1.93;;;7.80;98.90;;;8.21;72.27;97173.97;5031647;28;20034;-55
2023/12/23 02:06:08;;;;;;;8.13;2.23;;;7.70;99.00;;;8.26;71.93;97142.53;5031676;28;20042;-55
2023/12/23 02:08:36;;;;;;;4.57;1.90;;;7.70;98.00;;;8.45;71.37;97165.34;5031259;28;20041;-55
2023/12/23 02:11:05;;;;;;;10.30;2.10;;;7.80;97.80;;;8.40;71.62;97161.50;5030163;28;20053;-54
2023/12/23 02:13:51;;;;;;;9.33;2.60;;;7.80;99.10;;;8.36;71.65;97168.09;5014263;28;20080;-56
2023/12/23 02:16:18;;;;;;;5.43;2.27;;;7.70;98.40;;;8.34;71.63;97167.44;5030221;28;20045;-53
2023/12/23 02:18:47;;;;;;;4.47;1.97;;;7.70;98.90;;;8.26;71.82;97163.75;5013371;28;20496;-55
2023/12/23 02:21:14;;;;;;;9.47;1.83;;;7.60;99.60;;;8.33;72.16;97179.84;5031171;28;20531;-54
2023/12/23 02:23:42;;;;;;;3.40;2.00;;;7.70;99.90;;;8.36;72.09;97170.75;5030839;28;20053;-55
2023/12/23 02:26:12;;;;;;;8.30;2.00;;;7.70;99.90;;;8.47;71.63;97167.81;5031007;28;20424;-54
2023/12/23 02:28:41;;;;;;;6.07;2.30;;;7.70;99.90;;;8.46;71.77;97135.16;5013323;28;20424;-55
2023/12/23 02:31:10;;;;;;;7.67;2.20;;;7.80;99.90;;;8.46;71.68;97164.34;5029653;28;20060;-55
2023/12/23 02:33:39;;;;;;;4.17;1.70;;;7.70;99.90;;;8.25;71.91;97142.69;5031726;28;20053;-55
2023/12/23 02:36:06;;;;;;;4.93;2.13;;;7.70;99.70;;;8.31;71.98;97151.81;5030851;28;20054;-55
2023/12/23 02:38:34;;;;;;;7.53;3.10;;;7.60;99.70;;;8.37;71.69;97149.34;5029282;28;20052;-52
2023/12/23 02:41:02;;;;;;;6.33;1.83;;;7.70;99.60;;;8.32;71.50;97135.75;5012535;28;20049;-55
2023/12/23 02:43:29;;;;;;;5.00;1.90;;;7.70;98.30;;;8.37;71.62;97132.63;5029427;28;20045;-53
2023/12/23 02:45:57;;;;;;;4.60;1.83;;;7.70;98.50;;;8.39;70.88;97141.25;5029848;28;20056;-53
2023/12/23 02:48:25;;;;;;;4.70;1.67;;;7.80;96.70;;;8.30;70.95;97145.69;5030602;28;20041;-53
2023/12/23 02:50:52;;;;;;;6.40;1.80;;;7.80;96.50;;;8.26;71.06;97139.88;5029531;28;20057;-55
2023/12/23 02:53:20;;;;;;;3.57;1.80;;;7.70;96.30;;;8.31;70.75;97147.34;5029636;28;20116;-55
2023/12/23 02:55:48;;;;;;;4.27;2.20;;;7.70;97.00;;;8.22;70.48;97161.53;5030807;28;20041;-55
2023/12/23 02:58:15;;;;;;;4.23;1.73;;;7.70;94.90;;;8.22;70.63;97140.34;5028311;28;20447;-55
2023/12/23 03:00:43;;;;;;;6.23;2.03;;;7.70;96.60;;;8.34;70.17;97160.31;5030787;28;20038;-53
2023/12/23 03:03:11;;;;;;;5.60;1.63;;;7.70;95.40;;;8.28;70.36;97140.53;5029270;28;20519;-53
2023/12/23 03:05:38;;;;;;;5.13;1.40;;;7.80;95.60;;;8.28;69.89;97145.84;5029629;28;20117;-54
2023/12/23 03:08:06;;;;;;;5.57;2.47;;;7.70;94.70;;;8.32;69.95;97129.59;5028927;28;20413;-52
2023/12/23 03:10:34;;;;;;;6.57;2.10;;;7.80;95.30;;;8.21;69.67;97150.13;5030504;28;20041;-53
2023/12/23 03:13:02;;;;;;;5.03;2.03;;;7.70;93.80;;;8.19;69.99;97143.31;5029166;28;20273;-50
2023/12/23 03:15:30;;;;;;;4.03;1.50;;;7.70;94.30;;;8.26;69.80;97165.56;5029286;28;20049;-53
2023/12/23 03:17:58;;;;;;;3.80;1.30;;;7.80;93.50;;;8.29;69.66;97147.50;5028911;28;20501;-54
2023/12/23 03:20:26;;;;;;;4.00;1.80;;;7.80;93.80;;;8.29;69.80;97138.72;5022993;28;20049;-54
2023/12/23 03:22:54;;;;;;;2.10;1.30;;;7.70;94.10;;;8.38;69.38;97144.91;5029200;28;20151;-53
2023/12/23 03:25:21;;;;;;;3.40;1.30;;;7.80;93.30;;;8.34;69.31;97139.09;5029033;28;20052;-54
2023/12/23 03:27:49;;;;;;;4.17;1.73;;;7.80;93.10;;;8.38;69.51;97123.69;5028751;28;20045;-54
2023/12/23 03:30:17;;;;;;;2.43;1.30;;;7.80;93.80;;;8.46;68.95;97140.47;5030419;28;20098;-55
2023/12/23 03:32:44;;;;;;;2.73;2.00;;;7.80;93.20;;;8.38;68.92;97147.56;5012304;28;20045;-51
2023/12/23 03:35:13;;;;;;;3.27;1.77;;;7.80;92.40;;;8.20;68.96;97132.56;5030162;28;20037;-54
2023/12/23 03:37:41;;;;;;;2.50;1.50;;;7.70;92.00;;;8.27;69.00;97127.44;5030091;28;20049;-54
2023/12/23 03:40:09;;;;;;;5.47;3.10;;;7.80;92.10;;;8.41;68.91;97136.59;5028536;28;20037;-53
2023/12/23 03:42:38;;;;;;;6.40;2.00;;;7.80;92.20;;;8.28;68.72;97145.84;5030297;28;20045;-51
2023/12/23 03:45:07;;;;;;;12.13;2.10;;;7.80;91.50;;;8.41;68.35;97120.69;5029225;28;20060;-54
2023/12/23 03:47:35;;;;;;;1.90;0.97;;;7.90;90.80;;;8.44;68.01;97149.59;5028663;28;20068;-51
2023/12/23 03:50:03;;;;;;;4.37;1.67;;;7.90;90.50;;;8.48;67.74;97170.31;5028811;28;20053;-54
2023/12/23 03:52:31;;;;;;;3.60;1.77;;;7.90;89.90;;;8.56;67.96;97136.88;5021953;28;20045;-53
2023/12/23 03:54:58;;;;;;;4.67;2.10;;;7.90;91.00;;;8.64;67.79;97132.41;5032671;28;20049;-52
2023/12/23 03:57:26;;;;;;;5.03;1.70;;;7.90;91.10;;;8.78;67.24;97136.28;5031787;28;20049;-53
2023/12/23 03:59:53;;;;;;;4.57;2.63;;;8.00;90.80;;;8.74;67.19;97137.56;5032456;28;20120;-51
2023/12/23 04:02:21;;;;;;;5.03;2.07;;;8.00;90.30;;;8.72;66.87;97144.03;5032324;28;20045;-57
2023/12/23 04:04:49;;;;;;;2.17;1.27;;;8.00;89.50;;;8.79;66.70;97135.28;5033777;28;20041;-54
2023/12/23 04:07:17;;;;;;;4.17;1.77;;;8.10;89.30;;;8.76;66.78;97143.56;5032602;28;20425;-54
2023/12/23 04:09:45;;;;;;;7.13;2.80;;;7.90;89.80;;;8.69;66.59;97133.75;5033433;28;20044;-52
2023/12/23 04:12:13;;;;;;;4.97;2.07;;;7.90;89.10;;;8.73;66.56;97145.72;5033509;28;20416;-54
2023/12/23 04:14:41;;;;;;;6.70;2.00;;;7.90;89.10;;;8.77;65.73;97158.50;5033479;28;20045;-55
2023/12/23 04:17:08;;;;;;;8.93;2.40;;;7.90;87.90;;;8.79;65.38;97134.44;5032617;28;20080;-52
2023/12/23 04:19:36;;;;;;;5.37;1.63;;;8.00;87.20;;;8.75;65.82;97149.03;5032139;28;20049;-54
2023/12/23 04:22:04;;;;;;;3.70;1.33;;;8.00;88.40;;;8.95;65.96;97147.75;5032109;28;20048;-55
2023/12/23 04:24:32;;;;;;;4.50;1.70;;;8.00;88.10;;;8.91;65.32;97138.44;5008214;28;20204;-55
2023/12/23 04:27:00;;;;;;;3.37;1.33;;;8.00;87.00;;;8.86;65.28;97130.97;5032672;28;20053;-55
2023/12/23 04:29:29;;;;;;;2.73;1.60;;;8.00;86.50;;;8.98;65.07;97136.81;5033057;28;20053;-52
2023/12/23 04:31:57;;;;;;;3.83;1.37;;;8.00;87.10;;;8.77;64.22;97150.53;5031957;28;20497;-54
2023/12/23 04:34:25;;;;;;;4.70;1.40;;;7.90;85.00;;;8.92;64.28;97132.16;5033076;28;20053;-51
2023/12/23 04:36:53;;;;;;;3.83;1.47;;;8.00;85.10;;;8.86;64.63;97140.78;5031841;28;20481;-54
2023/12/23 04:39:20;;;;;;;1.70;1.07;;;8.00;85.70;;;8.90;63.95;97133.28;5031440;28;20053;-55
2023/12/23 04:41:48;;;;;;;4.27;1.37;;;8.00;84.10;;;8.97;63.85;97129.00;5032186;28;20519;-54
2023/12/23 04:44:18;;;;;;;1.93;1.33;;;8.10;85.00;;;8.90;63.87;97110.25;5031718;28;20050;-54
2023/12/23 04:46:47;;;;;;;2.13;1.33;;;8.10;84.30;;;8.73;63.91;97143.88;5031708;28;20046;-55
2023/12/23 04:49:15;;;;;;;2.30;1.50;;;8.00;84.40;;;8.75;64.34;97138.41;5031014;28;20056;-55
2023/12/23 04:51:46;;;;;;;6.87;1.50;;;8.00;84.40;;;8.80;64.36;97142.25;5031866;28;20535;-51
2023/12/23 04:54:14;;;;;;;2.50;1.20;;;8.00;85.30;;;8.75;64.29;97123.31;5027973;28;20065;-55
2023/12/23 04:56:41;;;;;;;2.10;1.40;;;8.10;84.50;;;8.78;64.50;97119.50;5031591;28;20402;-55
2023/12/23 04:59:09;;;;;;;3.73;1.30;;;8.10;85.20;;;8.84;64.29;97148.03;5014918;28;20394;-55
2023/12/23 05:01:37;;;;;;;2.73;1.33;;;8.10;84.40;;;8.80;64.30;97136.94;5023734;28;20042;-55
2023/12/23 05:04:04;;;;;;;2.33;1.33;;;8.10;84.20;;;8.84;64.44;97125.00;5030904;28;20049;-55
2023/12/23 05:06:32;;;;;;;3.83;1.30;;;8.10;85.80;;;8.85;64.37;97128.47;5031305;28;20060;-55
2023/12/23 05:09:00;;;;;;;3.60;1.30;;;8.10;85.20;;;8.98;64.13;97107.59;5030771;28;20056;-53
2023/12/23 05:11:27;;;;;;;1.17;0.90;;;8.10;85.50;;;8.97;63.77;97105.94;5030883;28;20102;-55
2023/12/23 05:13:55;;;;;;;2.47;1.50;;;8.10;84.50;;;9.07;64.11;97122.56;5031409;28;20046;-52
2023/12/23 05:16:23;;;;;;;5.47;1.43;;;8.20;84.90;;;8.94;64.02;97124.03;5032494;28;20493;-54
2023/12/23 05:18:50;;;;;;;4.57;1.60;;;8.10;84.70;;;9.14;64.02;97108.63;5032303;28;20060;-56
2023/12/23 05:21:18;;;;;;;1.30;1.03;;;8.20;85.50;;;8.95;63.71;97155.72;5032432;28;20041;-55
2023/12/23 05:23:46;;;;;;;0.80;0.70;;;8.10;84.20;;;9.01;64.20;97136.47;5030970;28;20060;-55
2023/12/23 05:26:20;;;;;;;1.80;0.90;;;8.10;85.80;;;9.06;63.64;97130.69;5031287;28;20042;-55
2023/12/23 05:28:48;;;;;;;0.73;0.73;;;8.30;84.70;;;9.10;63.73;97141.81;5030942;28;20413;-55
2023/12/23 05:31:16;;;;;;;1.53;1.10;;;8.30;84.40;;;8.98;64.08;97152.72;5014604;28;20064;-55
2023/12/23 05:33:44;;;;;;;1.03;0.60;;;8.30;84.60;;;9.04;64.21;97130.00;5032219;28;20041;-54
2023/12/23 05:36:12;;;;;;;2.40;1.00;;;8.30;85.20;;;8.94;64.43;97137.31;5032442;28;20048;-53
2023/12/23 05:38:39;;;;;;;1.90;0.63;;;8.10;85.70;;;8.99;64.36;97153.56;5024327;28;20056;-55
2023/12/23 05:41:09;;;;;;;0.80;0.63;;;8.20;86.50;;;8.87;64.46;97175.09;5032309;28;20041;-55
2023/12/23 05:43:37;;;;;;;0.57;0.57;;;8.10;86.10;;;8.77;65.12;97129.28;5031914;28;20052;-52
2023/12/23 05:46:05;;;;;;;1.60;0.90;;;8.10;86.30;;;8.87;64.88;97134.47;5032191;28;20041;-51
2023/12/23 05:48:32;;;;;;;0.63;0.63;;;8.10;86.60;;;8.96;64.89;97111.44;5030463;28;20068;-52
2023/12/23 05:51:00;;;;;;;1.87;0.83;;;8.20;87.20;;;8.97;65.07;97113.88;5030342;28;20402;-51
2023/12/23 05:53:28;;;;;;;0.90;0.70;;;8.20;87.60;;;8.82;65.65;97131.44;5031933;28;20061;-52
2023/12/23 05:55:56;;;;;;;0.70;0.67;;;8.00;88.50;;;8.81;65.63;97114.69;5031864;28;20042;-54
2023/12/23 05:58:23;;;;;;;3.47;0.70;;;8.10;88.80;;;8.71;66.11;97137.09;5029696;28;20049;-54
2023/12/23 06:00:51;;;;;;;2.53;1.63;;;8.00;89.00;;;8.45;67.41;97114.09;5031808;28;20040;-55
2023/12/23 06:03:18;;;;;;;1.03;0.90;;;7.90;90.20;;;8.66;66.69;97111.84;5030528;28;20041;-54
2023/12/23 06:05:46;;;;;;;0.73;0.60;;;7.90;90.10;;;8.92;65.86;97100.31;5030623;28;20041;-55
2023/12/23 06:08:14;;;;;;;0.70;0.70;;;8.10;88.90;;;8.90;65.34;97142.09;5031689;28;20045;-54
2023/12/23 06:10:41;;;;;;;1.53;0.80;;;8.10;88.00;;;8.93;65.48;97101.94;5030576;28;20067;-53
2023/12/23 06:13:25;;;;;;;3.17;1.10;;;8.10;87.90;;;9.09;65.34;97084.38;5016028;28;20057;-54
2023/12/23 06:15:53;;;;;;;1.13;0.90;;;8.10;88.60;;;9.08;65.18;97078.22;5030597;28;20048;-55
2023/12/23 06:18:21;;;;;;;1.80;0.73;;;8.10;88.00;;;8.99;64.95;97082.69;5031223;28;20045;-54
2023/12/23 06:20:49;;;;;;;1.60;0.60;;;8.10;87.20;;;9.06;64.78;97086.34;5031215;28;20045;-55
2023/12/23 06:23:16;;;;;;;1.43;0.80;;;8.20;86.50;;;8.98;64.94;97069.59;5031378;28;20068;-54
2023/12/23 06:25:44;;;;;;;0.43;0.43;;;8.20;87.20;;;8.93;64.91;97099.28;5023639;28;20068;-54
2023/12/23 06:28:12;;;;;;;0.40;0.40;;;8.20;86.20;;;9.03;65.03;97076.09;5031086;28;20052;-52
2023/12/23 06:30:39;;;;;;;0.97;0.60;;;8.20;87.00;;;9.11;64.83;97079.72;5030150;28;20045;-55
2023/12/23 06:33:07;;;;;;;0.50;0.50;;;8.20;86.70;;;9.10;64.44;97091.34;5031012;28;20417;-55
2023/12/23 06:35:35;;;;;;;1.63;0.83;;;8.30;87.10;;;9.10;64.36;97105.44;5030909;28;20049;-52
2023/12/23 06:38:02;;;;;;;1.03;0.63;;;8.20;86.10;;;9.12;64.46;97107.94;5030948;28;20056;-53
2023/12/23 06:40:30;;;;;;;2.00;0.77;;;8.20;86.50;;;9.12;64.43;97084.03;5031090;28;20045;-53
2023/12/23 06:42:58;;;;;;;1.63;0.60;;;8.30;85.70;;;9.19;64.21;97069.09;5029372;28;20045;-55
2023/12/23 06:45:25;;;;;;;1.00;0.70;;;8.30;86.90;;;9.14;64.35;97093.50;5031091;28;20041;-54
2023/12/23 06:47:53;;;;;;;1.17;0.60;;;8.20;86.70;;;8.96;65.19;97092.84;5030851;28;20049;-57
2023/12/23 06:50:21;;;;;;;1.23;0.63;;;8.20;88.00;;;8.97;65.08;97103.28;5031149;28;20053;-54
2023/12/23 06:52:49;;;;;;;0.57;0.57;;;8.10;87.90;;;9.09;65.23;97109.09;5030784;28;20052;-55
2023/12/23 06:55:17;;;;;;;0.60;0.60;;;8.10;89.20;;;9.09;64.89;97093.16;5031116;28;20402;-54
2023/12/23 06:57:45;;;;;;;2.00;0.53;;;8.10;88.90;;;9.11;65.25;97088.53;5029765;28;20147;-54
2023/12/23 07:00:14;;;;;;;2.00;0.73;;;8.10;88.90;;;9.15;64.75;97092.53;5030848;28;20685;-54
2023/12/23 07:02:42;;;;;;;0.90;0.80;;;8.10;88.50;;;9.27;64.96;97085.03;5030583;28;20524;-56
2023/12/23 07:05:10;;;;;;;2.73;0.80;;;8.20;89.60;;;9.30;64.58;97089.19;5031071;28;20045;-54
2023/12/23 07:07:38;;;;;;;0.80;0.63;;;8.20;87.60;;;9.01;64.96;97107.25;5030259;28;20046;-55
2023/12/23 07:10:06;;;;;;;0.77;0.60;;;8.10;88.30;;;9.08;64.91;97102.13;5027664;28;20053;-54
2023/12/23 07:12:34;;;;;;;0.83;0.80;;;8.10;88.20;;;9.04;64.64;97090.19;5030764;28;20386;-53
2023/12/23 07:15:06;;;;;;;1.00;0.67;;;8.10;88.00;;;9.05;64.75;97102.44;5030807;28;20042;-56
2023/12/23 07:17:34;;;;;;;1.60;0.67;;;8.20;87.00;;;8.98;64.68;97114.75;5030384;28;20045;-57
2023/12/23 07:20:09;;;;;;;10.13;1.63;;;8.00;88.10;;;9.02;64.55;97114.25;5030619;28;20377;-56
2023/12/23 07:22:37;;;;;;;1.53;0.60;;;8.10;87.00;;;9.01;64.28;97101.13;5030649;28;20052;-55
2023/12/23 07:25:05;;;;;;;0.47;0.47;;;8.10;86.70;;;8.93;64.65;97093.16;5029590;28;20049;-54
2023/12/23 07:27:33;;;;;;;0.30;0.30;;;8.10;87.40;;;8.89;64.81;97116.53;5031894;28;20045;-55
2023/12/23 07:30:01;;;;;;;2.03;0.70;;;8.10;86.50;;;8.95;64.91;97134.47;5034733;28;20037;-57
2023/12/23 07:32:28;;;;;;;0.53;0.50;;;8.10;87.00;;;9.11;64.56;97098.31;5034485;28;20046;-54
2023/12/23 07:34:56;;;;;;;1.53;0.80;;;8.20;87.00;;;9.16;64.33;97098.66;5033350;28;20045;-58
2023/12/23 07:37:23;;;;;;;0.50;0.50;;;8.20;87.70;;;9.13;64.06;97101.63;5034365;28;20050;-57
2023/12/23 07:39:52;;;;;;;0.50;0.40;;;8.20;86.20;;;9.21;63.97;97104.31;5026739;28;20048;-56
2023/12/23 07:42:20;;;;;;;0.40;0.30;;;8.20;86.30;;;9.02;64.12;97134.66;5034047;28;20489;-55
2023/12/23 07:44:48;;;;;;;0.40;0.40;;;8.10;86.00;;;8.99;64.59;97116.38;5034261;28;20090;-55
2023/12/23 07:47:17;;;;;;;0.93;0.90;;;8.10;87.20;;;8.99;64.22;97113.72;5034350;28;20038;-55
2023/12/23 07:49:45;;;;;;;0.83;0.60;;;8.20;85.50;;;8.77;64.91;97128.47;5032756;28;20048;-54
2023/12/23 07:52:12;;;;;;;0.43;0.43;;;8.00;86.60;;;8.78;64.98;97117.69;5034269;28;20052;-54
2023/12/23 07:54:40;;;;;;;0.77;0.60;;;8.00;86.90;;;8.80;65.15;97117.50;5029115;28;20056;-55
2023/12/23 07:57:07;;;;;;;1.70;0.70;;;8.00;87.80;;;8.91;64.80;97116.38;5034441;28;20049;-56
2023/12/23 07:59:35;;;;;;;1.20;0.50;;;8.00;87.10;;;9.06;64.39;97136.81;5033853;28;20064;-53
2023/12/23 08:02:03;;;;;;;0.67;0.50;;;8.10;86.80;;;8.95;64.29;97144.25;5033923;28;20512;-54
2023/12/23 08:04:31;;;;;;;0.63;0.50;;;8.10;85.60;;;8.89;64.41;97132.47;5034366;28;20109;-52
2023/12/23 08:06:58;;;;;;;2.77;0.60;;;8.10;86.20;;;9.06;64.43;97141.31;5016502;28;20497;-51
2023/12/23 08:09:26;;;;;;;0.60;0.40;;;8.20;86.40;;;9.17;64.20;97118.88;5033474;28;20048;-53
2023/12/23 08:11:54;;;;;;;0.67;0.67;;;8.20;86.20;;;9.15;63.82;97129.69;5025880;28;20045;-52
2023/12/23 08:14:21;;;;;;;0.73;0.60;;;8.30;85.80;;;9.35;63.78;97118.75;5033750;28;20229;-54
2023/12/23 08:16:49;;;;;;;0.73;0.50;;;8.40;86.00;;;9.40;63.59;97141.16;5033761;28;20042;-55
2023/12/23 08:19:16;;;;;;;0.77;0.40;;;8.40;85.50;;;9.49;63.57;97117.25;5033238;28;20045;-54
2023/12/23 08:21:48;;;;;;;0.33;0.33;;;8.50;85.50;;;9.46;62.62;97134.38;5033589;28;20046;-55
2023/12/23 08:24:16;;;;;;;0.40;0.40;;;8.40;83.40;;;9.49;62.44;97094.16;5033760;28;20339;-51
2023/12/23 08:26:44;;;;;;;1.83;0.70;;;8.40;83.60;;;9.31;62.30;97125.41;5032822;28;20049;-54
2023/12/23 08:29:11;;;;;;;0.60;0.30;;;8.40;82.20;;;9.02;62.30;97127.50;5030654;28;20050;-56
2023/12/23 08:31:44;;;;;;;2.40;1.17;;;8.30;81.90;;;9.13;62.30;97098.97;5032133;28;20054;-52
2023/12/23 08:34:12;;;;;;;3.70;0.70;;;8.40;82.30;;;9.19;62.41;97116.91;5033697;28;20053;-54
2023/12/23 08:36:40;;;;;;;0.50;0.47;;;8.40;82.30;;;9.29;62.57;97099.00;5033397;28;20049;-53
2023/12/23 08:39:08;;;;;;;0.60;0.60;;;8.40;82.80;;;9.17;62.34;97114.44;5031162;28;20049;-55
2023/12/23 08:41:35;;;;;;;0.40;0.40;;;8.30;82.10;;;9.10;62.06;97153.25;5033282;28;20056;-54
2023/12/23 08:44:04;;;;;;;0.50;0.40;;;8.30;81.80;;;8.98;62.61;97139.47;5033297;28;20497;-54
2023/12/23 08:46:32;;;;;;;0.73;0.47;;;8.30;81.50;;;9.07;62.49;97135.84;5033074;28;20060;-54
2023/12/23 08:49:02;;;;;;;0.50;0.50;;;8.30;81.70;;;9.10;61.95;97126.69;5032193;28;20052;-53
2023/12/23 08:51:33;;;;;;;1.80;0.37;;;8.40;80.80;;;9.13;61.79;97115.75;5031893;28;20053;-52
2023/12/23 08:54:00;;;;;;;1.17;0.30;;;8.40;80.00;;;9.14;61.74;97113.91;5025321;28;20053;-54
2023/12/23 08:56:28;;;;;;;1.13;0.23;;;8.50;79.80;;;9.15;61.70;97126.19;5033290;28;20049;-55
2023/12/23 08:58:55;;;;;;;0.53;0.47;;;8.40;79.70;;;9.19;61.64;97107.13;5032670;28;20424;-55
2023/12/23 09:01:23;;;;;;;0.57;0.57;;;8.40;80.60;;;9.25;61.08;97117.06;5031481;28;20053;-55
2023/12/23 09:03:51;;;;;;;0.80;0.53;;;8.50;79.70;;;9.39;61.07;97112.94;5032611;28;20044;-53
2023/12/23 09:06:19;;;;;;;0.50;0.43;;;8.50;79.90;;;9.48;60.82;97060.63;5033077;28;20516;-54
2023/12/23 09:08:46;;;;;;;1.20;0.80;;;8.50;79.20;;;9.59;60.68;97120.56;5032505;28;20064;-55
2023/12/23 09:11:14;;;;;;;2.23;0.73;;;8.60;79.50;;;9.64;60.46;97120.88;5032918;28;20057;-53
2023/12/23 09:13:42;;;;;;;0.50;0.50;;;8.70;79.60;;;9.57;60.30;97119.88;5032603;28;20433;-53
2023/12/23 09:16:09;;;;;;;0.93;0.37;;;8.70;78.90;;;9.55;60.46;97105.94;5032403;28;20216;-53
2023/12/23 09:18:37;;;;;;;1.20;0.40;;;8.70;79.10;;;9.43;60.59;97103.63;5032417;28;20045;-51
2023/12/23 09:21:05;;;;;;;0.40;0.40;;;8.70;78.80;;;9.37;60.92;97125.53;5032578;28;20049;-54
2023/12/23 09:23:33;;;;;;;0.30;0.30;;;8.50;79.20;;;9.29;60.76;97156.59;5032526;28;20049;-54
2023/12/23 09:26:01;;;;;;;0.20;0.20;;;8.50;79.80;;;9.17;61.19;97175.50;5024647;28;20041;-54
2023/12/23 09:28:28;;;;;;;0.40;0.40;;;8.40;80.00;;;9.24;61.00;97155.25;5031114;28;20620;-54
2023/12/23 09:30:56;;;;;;;0.30;0.30;;;8.50;79.10;;;9.29;60.99;97149.47;5031166;28;20049;-55
2023/12/23 09:33:23;;;;;;;0.77;0.50;;;8.50;79.50;;;9.27;60.63;97154.94;5031934;28;20053;-52
2023/12/23 09:35:53;;;;;;;0.53;0.30;;;8.50;78.50;;;9.29;60.56;97148.63;5031338;28;20053;-55
2023/12/23 09:38:21;;;;;;;0.20;0.20;;;8.50;78.50;;;9.37;60.58;97156.59;5030722;28;20060;-53
2023/12/23 09:40:49;;;;;;;0.33;0.30;;;8.60;78.30;;;9.40;60.32;97172.19;5031051;28;20056;-55
2023/12/23 09:43:19;;;;;;;0.60;0.40;;;8.70;78.00;;;9.20;60.59;97122.03;5032060;28;20045;-55
2023/12/23 09:45:48;;;;;;;0.50;0.40;;;8.60;78.00;;;9.02;60.99;97129.34;5030813;28;20049;-55
2023/12/23 09:48:16;;;;;;;0.57;0.43;;;8.40;78.70;;;9.00;61.11;97120.72;5014447;28;20050;-54
2023/12/23 09:50:45;;;;;;;0.30;0.30;;;8.40;78.50;;;9.19;60.52;97143.44;5030535;28;20060;-54
2023/12/23 09:53:13;;;;;;;0.63;0.50;;;8.60;77.90;;;9.23;60.52;97129.69;5030546;28;20048;-54
2023/12/23 09:55:42;;;;;;;0.30;0.30;;;8.60;77.80;;;9.23;60.45;97131.53;5031035;28;20049;-54
2023/12/23 09:58:09;;;;;;;0.40;0.40;;;8.50;78.10;;;9.26;60.48;97163.06;5030394;28;20045;-55
2023/12/23 10:00:37;;;;;;;0.70;0.50;;;8.60;77.70;;;9.38;60.13;97140.50;5032194;28;20046;-54
2023/12/23 10:03:06;;;;;;;0.40;0.40;;;8.70;78.30;;;9.41;59.94;97126.06;5030550;28;20037;-55
2023/12/23 10:05:42;;;;;;;0.37;0.37;;;8.70;78.10;;;9.49;59.93;97135.84;5030556;28;20045;-55
2023/12/23 10:08:09;;;;;;;0.73;0.40;;;8.60;77.20;;;9.38;60.20;97137.00;5023941;28;20049;-56
2023/12/23 10:10:37;;;;;;;0.50;0.50;;;8.60;77.80;;;9.43;60.49;97143.47;5031492;28;20045;-53
2023/12/23 10:13:05;;;;;;;0.73;0.30;;;8.60;78.70;;;9.52;60.41;97136.34;5031222;28;20056;-53
2023/12/23 10:15:32;;;;;;;1.40;0.53;;;8.60;79.10;;;9.47;60.40;97202.44;5031628;28;20057;-55
2023/12/23 10:18:03;;;;;;;0.43;0.37;;;8.70;78.90;;;9.43;60.47;97153.28;5031238;28;20076;-55
2023/12/23 10:20:32;;;;;;;1.30;0.70;;;8.70;78.10;;;9.52;60.32;97127.53;5031328;28;20587;-53
2023/12/23 10:23:00;;;;;;;0.53;0.30;;;8.70;78.30;;;9.27;60.78;97117.75;5031142;28;20056;-55
2023/12/23 10:25:27;;;;;;;0.50;0.50;;;8.70;78.30;;;9.32;60.80;97122.53;5031501;28;20469;-54
2023/12/23 10:28:01;;;;;;;1.53;1.10;;;8.70;78.50;;;9.45;60.50;97116.75;5031106;28;20417;-54
2023/12/23 10:30:34;;;;;;;0.30;0.30;;;8.70;79.50;;;9.34;60.71;97115.25;5031286;28;20045;-55
2023/12/23 10:33:07;;;;;;;0.60;0.60;;;8.60;78.80;;;9.34;60.63;97135.66;5031125;28;20037;-53
2023/12/23 10:35:45;;;;;;;1.20;0.82;;;8.70;77.90;;;9.34;60.62;97117.91;5031667;28;20041;-55